Time;durP1;ratioP1;P1;durP2;ratioP2;P2;SDS_P1;SDS_P2;PMS_P1;PMS_P2;Temp;Humidity;BMP_temperature;BMP_pressure;BME280_temperature;BME280_humidity;BME280_pressure;Samples;Min_cycle;Max_cycle;Signal;HPM_P1;HPM_P2
2023/06/12 00:00:32;;;;;;;;;;;13.70;65.70;;;;;;4099495;28;19922;-82
2023/06/12 00:02:53;;;;;;;;;;;13.70;66.40;;;;;;4098374;28;19982;-81
2023/06/12 00:05:19;;;;;;;;;;;13.70;66.40;;;;;;4103296;28;19914;-80
2023/06/12 00:07:41;;;;;;;;;;;13.60;66.60;;;;;;4094679;28;19922;-82
2023/06/12 00:10:02;;;;;;;;;;;13.60;67.20;;;;;;4099299;28;19946;-82
2023/06/12 00:12:23;;;;;;;;;;;13.60;67.00;;;;;;4098802;28;19918;-82
2023/06/12 00:14:44;;;;;;;;;;;13.70;67.60;;;;;;4101202;28;19953;-83
2023/06/12 00:17:05;;;;;;;;;;;13.60;67.80;;;;;;4096666;28;19933;-83
2023/06/12 00:19:27;;;;;;;;;;;13.50;68.20;;;;;;4103525;28;20047;-84
2023/06/12 00:21:48;;;;;;;;;;;13.50;68.70;;;;;;4091350;28;19954;-81
2023/06/12 00:24:10;;;;;;;;;;;13.60;68.90;;;;;;4094985;28;19989;-83
2023/06/12 00:26:30;;;;;;;;;;;13.50;69.40;;;;;;4101818;28;19920;-82
2023/06/12 00:28:51;;;;;;;;;;;13.50;69.60;;;;;;4098103;28;20475;-82
2023/06/12 00:31:12;;;;;;;;;;;13.50;69.90;;;;;;4102593;28;19922;-82
2023/06/12 00:33:33;;;;;;;;;;;13.50;70.30;;;;;;4099891;28;19915;-81
2023/06/12 00:35:54;;;;;;;;;;;13.50;70.40;;;;;;4099070;28;19982;-82
2023/06/12 00:38:15;;;;;;;;;;;13.40;70.80;;;;;;4096743;28;19950;-83
2023/06/12 00:40:37;;;;;;;;;;;13.40;71.10;;;;;;4098582;28;19942;-82
2023/06/12 00:42:57;;;;;;;;;;;13.50;71.30;;;;;;4099819;28;19965;-83
2023/06/12 00:45:20;;;;;;;;;;;13.40;71.30;;;;;;4100687;28;19927;-82
2023/06/12 00:47:42;;;;;;;;;;;13.40;71.20;;;;;;4105248;28;19977;-82
2023/06/12 00:50:04;;;;;;;;;;;13.50;71.70;;;;;;4095579;28;19914;-83
2023/06/12 00:52:26;;;;;;;;;;;13.40;71.20;;;;;;4097504;28;19919;-81
2023/06/12 00:54:47;;;;;;;;;;;13.40;71.30;;;;;;4098233;28;20029;-82
2023/06/12 00:57:08;;;;;;;;;;;13.50;71.20;;;;;;4098126;28;19914;-82
2023/06/12 00:59:29;;;;;;;;;;;13.40;71.40;;;;;;4099360;28;19914;-82
2023/06/12 01:01:50;;;;;;;;;;;13.50;71.30;;;;;;4100977;28;19926;-82
2023/06/12 01:04:11;;;;;;;;;;;13.40;71.20;;;;;;4102249;28;19915;-82
2023/06/12 01:06:35;;;;;;;;;;;13.50;71.40;;;;;;4099349;28;19918;-82
2023/06/12 01:09:09;;;;;;;;;;;13.40;71.30;;;;;;4098625;28;19954;-82
2023/06/12 01:11:32;;;;;;;;;;;13.40;71.30;;;;;;4114884;28;19918;-81
2023/06/12 01:13:52;;;;;;;;;;;13.50;71.50;;;;;;4103984;28;19954;-83
2023/06/12 01:16:13;;;;;;;;;;;13.40;71.60;;;;;;4104738;28;19950;-83
2023/06/12 01:18:34;;;;;;;;;;;13.50;71.90;;;;;;4101275;28;19917;-82
2023/06/12 01:20:55;;;;;;;;;;;13.50;72.10;;;;;;4102691;28;20332;-83
2023/06/12 01:23:22;;;;;;;;;;;13.40;72.00;;;;;;4113819;28;19969;-82
2023/06/12 01:26:00;;;;;;;;;;;13.40;72.00;;;;;;4100203;28;19924;-82
2023/06/12 01:28:37;;;;;;;;;;;13.50;71.90;;;;;;4101740;28;20037;-81
2023/06/12 01:31:18;;;;;;;;;;;13.50;72.10;;;;;;4100909;28;19918;-83
2023/06/12 01:33:40;;;;;;;;;;;13.40;72.10;;;;;;4100298;28;19919;-82
2023/06/12 01:36:02;;;;;;;;;;;13.50;72.10;;;;;;4102697;28;19923;-82
2023/06/12 01:38:22;;;;;;;;;;;13.50;72.30;;;;;;4101178;28;19919;-82
2023/06/12 01:40:45;;;;;;;;;;;13.40;72.30;;;;;;4096695;28;20966;-82
2023/06/12 01:43:05;;;;;;;;;;;13.50;72.70;;;;;;4099538;28;19915;-82
2023/06/12 01:45:26;;;;;;;;;;;13.40;72.80;;;;;;4102361;28;19926;-82
2023/06/12 01:47:47;;;;;;;;;;;13.50;73.00;;;;;;4100016;28;19922;-82
2023/06/12 01:50:08;;;;;;;;;;;13.50;73.10;;;;;;4103885;28;20134;-82
2023/06/12 01:52:29;;;;;;;;;;;13.50;72.90;;;;;;4099844;28;19962;-81
2023/06/12 01:54:50;;;;;;;;;;;13.50;73.10;;;;;;4099373;28;19915;-82
2023/06/12 01:57:11;;;;;;;;;;;13.50;73.30;;;;;;4099859;28;20017;-82
2023/06/12 01:59:34;;;;;;;;;;;13.50;73.30;;;;;;4100715;28;19911;-82
2023/06/12 02:01:55;;;;;;;;;;;13.50;73.60;;;;;;4099739;28;19946;-84
2023/06/12 02:04:17;;;;;;;;;;;13.60;73.40;;;;;;4114722;28;20435;-82
2023/06/12 02:06:38;;;;;;;;;;;13.50;73.70;;;;;;4099134;28;19914;-82
2023/06/12 02:08:58;;;;;;;;;;;13.50;73.70;;;;;;4111014;28;20005;-83
2023/06/12 02:11:20;;;;;;;;;;;13.60;73.70;;;;;;4104714;28;19962;-82
2023/06/12 02:13:40;;;;;;;;;;;13.50;74.50;;;;;;4102032;28;19949;-81
2023/06/12 02:16:03;;;;;;;;;;;13.50;75.30;;;;;;4101629;28;19923;-82
2023/06/12 02:18:24;;;;;;;;;;;13.40;76.30;;;;;;4100255;28;19926;-82
2023/06/12 02:20:45;;;;;;;;;;;13.40;77.30;;;;;;4097572;28;19949;-82
2023/06/12 02:23:05;;;;;;;;;;;13.40;76.90;;;;;;4096700;28;19929;-82
2023/06/12 02:25:26;;;;;;;;;;;13.40;76.90;;;;;;4094451;28;19942;-83
2023/06/12 02:27:47;;;;;;;;;;;13.50;77.10;;;;;;4101789;28;19922;-81
2023/06/12 02:30:08;;;;;;;;;;;13.40;77.50;;;;;;4100329;28;19921;-82
2023/06/12 02:32:33;;;;;;;;;;;13.40;77.80;;;;;;4097775;28;19940;-82
2023/06/12 02:34:54;;;;;;;;;;;13.50;78.10;;;;;;4102412;28;19922;-82
2023/06/12 02:37:15;;;;;;;;;;;13.40;78.10;;;;;;4100023;28;20001;-82
2023/06/12 02:39:36;;;;;;;;;;;13.40;78.50;;;;;;4103793;28;19914;-82
2023/06/12 02:41:57;;;;;;;;;;;13.50;78.80;;;;;;4098755;28;19918;-81
2023/06/12 02:44:17;;;;;;;;;;;13.40;78.80;;;;;;4112382;28;19958;-82
2023/06/12 02:46:52;;;;;;;;;;;13.50;78.70;;;;;;4101003;28;19982;-82
2023/06/12 02:49:12;;;;;;;;;;;13.40;78.70;;;;;;4100962;28;19941;-82
2023/06/12 02:51:33;;;;;;;;;;;13.50;78.80;;;;;;4099690;28;19914;-82
2023/06/12 02:53:54;;;;;;;;;;;13.50;79.10;;;;;;4101121;28;19919;-82
2023/06/12 02:56:15;;;;;;;;;;;13.40;78.90;;;;;;4099877;28;20038;-82
2023/06/12 02:58:36;;;;;;;;;;;13.40;78.90;;;;;;4096846;28;19926;-82
2023/06/12 03:00:57;;;;;;;;;;;13.50;79.00;;;;;;4099623;28;19919;-81
2023/06/12 03:03:20;;;;;;;;;;;13.40;78.90;;;;;;4094793;28;20078;-82
2023/06/12 03:05:43;;;;;;;;;;;13.40;78.80;;;;;;4106230;28;19925;-82
2023/06/12 03:08:04;;;;;;;;;;;13.40;78.90;;;;;;4100043;28;19915;-82
2023/06/12 03:10:25;;;;;;;;;;;13.40;79.70;;;;;;4102400;28;19953;-83
2023/06/12 03:12:46;;;;;;;;;;;13.50;78.90;;;;;;4101009;28;20544;-83
2023/06/12 03:15:07;;;;;;;;;;;13.40;78.90;;;;;;4098421;28;19930;-82
2023/06/12 03:17:28;;;;;;;;;;;13.40;78.90;;;;;;4101232;28;19938;-83
2023/06/12 03:19:49;;;;;;;;;;;13.40;78.90;;;;;;4103916;28;20471;-82
2023/06/12 03:22:09;;;;;;;;;;;13.50;79.00;;;;;;4097402;28;20740;-83
2023/06/12 03:24:30;;;;;;;;;;;13.40;79.30;;;;;;4095688;28;19933;-82
2023/06/12 03:26:51;;;;;;;;;;;13.50;79.40;;;;;;4114808;28;19949;-82
2023/06/12 03:29:12;;;;;;;;;;;13.40;79.50;;;;;;4098602;28;19938;-80
2023/06/12 03:31:33;;;;;;;;;;;13.40;79.60;;;;;;4101718;28;19922;-83
2023/06/12 03:33:54;;;;;;;;;;;13.50;79.70;;;;;;4098068;28;19934;-84
2023/06/12 03:36:16;;;;;;;;;;;13.40;79.70;;;;;;4095877;28;19919;-82
2023/06/12 03:38:37;;;;;;;;;;;13.50;80.00;;;;;;4101298;28;19969;-83
2023/06/12 03:40:58;;;;;;;;;;;13.50;80.40;;;;;;4097090;28;20539;-83
2023/06/12 03:43:19;;;;;;;;;;;13.50;81.20;;;;;;4094053;28;19938;-81
2023/06/12 03:45:40;;;;;;;;;;;13.40;80.40;;;;;;4099072;28;19973;-83
2023/06/12 03:48:01;;;;;;;;;;;13.50;80.50;;;;;;4098381;28;19916;-82
2023/06/12 03:50:22;;;;;;;;;;;13.50;80.70;;;;;;4096242;28;19945;-80
2023/06/12 03:52:42;;;;;;;;;;;13.50;80.70;;;;;;4097957;28;19922;-81
2023/06/12 03:55:03;;;;;;;;;;;13.60;81.00;;;;;;4098833;28;19918;-83
2023/06/12 03:57:24;;;;;;;;;;;13.60;81.20;;;;;;4096591;28;19914;-80
2023/06/12 03:59:46;;;;;;;;;;;13.70;81.10;;;;;;4103184;28;19914;-82
2023/06/12 04:02:07;;;;;;;;;;;13.70;81.00;;;;;;4104265;28;20022;-82
2023/06/12 04:04:28;;;;;;;;;;;13.80;81.00;;;;;;4102446;28;19925;-82
2023/06/12 04:06:49;;;;;;;;;;;13.80;80.90;;;;;;4106892;28;19918;-82
2023/06/12 04:09:12;;;;;;;;;;;13.80;81.10;;;;;;4101141;28;19914;-82
2023/06/12 04:11:34;;;;;;;;;;;13.80;81.00;;;;;;4104374;28;19918;-82
2023/06/12 04:13:55;;;;;;;;;;;13.90;81.10;;;;;;4102769;28;19965;-81
2023/06/12 04:16:16;;;;;;;;;;;13.90;81.00;;;;;;4096911;28;19918;-83
2023/06/12 04:18:37;;;;;;;;;;;13.90;80.80;;;;;;4098535;28;19975;-83
2023/06/12 04:21:00;;;;;;;;;;;14.00;80.80;;;;;;4103010;28;20577;-80
2023/06/12 04:23:21;;;;;;;;;;;13.90;80.50;;;;;;4101290;28;20297;-84
2023/06/12 04:25:42;;;;;;;;;;;14.10;80.50;;;;;;4100995;28;19946;-84
2023/06/12 04:28:03;;;;;;;;;;;14.10;80.30;;;;;;4095634;28;20131;-83
2023/06/12 04:30:25;;;;;;;;;;;14.10;80.10;;;;;;4107576;28;19914;-79
2023/06/12 04:32:46;;;;;;;;;;;14.20;80.10;;;;;;4099768;28;19926;-82
2023/06/12 04:35:08;;;;;;;;;;;14.30;79.80;;;;;;4100018;28;20176;-81
2023/06/12 04:37:28;;;;;;;;;;;14.30;79.60;;;;;;4113673;28;19929;-81
2023/06/12 04:39:50;;;;;;;;;;;14.30;79.40;;;;;;4100787;28;19915;-82
2023/06/12 04:42:16;;;;;;;;;;;14.40;79.20;;;;;;4100672;28;20001;-82
2023/06/12 04:44:39;;;;;;;;;;;14.50;79.20;;;;;;4104234;28;19932;-82
2023/06/12 04:47:11;;;;;;;;;;;14.60;79.00;;;;;;4105484;28;19920;-82
2023/06/12 04:49:32;;;;;;;;;;;14.60;78.80;;;;;;4102110;28;19915;-83
2023/06/12 04:51:54;;;;;;;;;;;14.70;78.80;;;;;;4103388;28;19914;-83
2023/06/12 04:54:18;;;;;;;;;;;14.70;78.40;;;;;;4105822;28;19919;-84
2023/06/12 04:56:40;;;;;;;;;;;14.90;78.40;;;;;;4105537;28;19919;-84
2023/06/12 04:59:01;;;;;;;;;;;14.90;78.40;;;;;;4104228;28;19919;-83
2023/06/12 05:01:22;;;;;;;;;;;14.90;77.90;;;;;;4105848;28;19930;-83
2023/06/12 05:03:43;;;;;;;;;;;15.00;78.40;;;;;;4104224;28;19925;-82
2023/06/12 05:06:04;;;;;;;;;;;15.00;77.40;;;;;;4101197;28;19954;-84
2023/06/12 05:08:25;;;;;;;;;;;15.10;77.30;;;;;;4102760;28;19981;-82
2023/06/12 05:10:46;;;;;;;;;;;15.10;77.80;;;;;;4099461;28;20460;-81
2023/06/12 05:13:07;;;;;;;;;;;15.20;77.10;;;;;;4104391;28;19918;-82
2023/06/12 05:15:27;;;;;;;;;;;15.30;77.10;;;;;;4096439;28;19925;-81
2023/06/12 05:17:48;;;;;;;;;;;15.30;76.70;;;;;;4102882;28;19918;-83
2023/06/12 05:20:09;;;;;;;;;;;15.50;76.60;;;;;;4101413;28;19982;-82
2023/06/12 05:22:30;;;;;;;;;;;15.50;76.50;;;;;;4104830;28;20452;-85
2023/06/12 05:24:51;;;;;;;;;;;15.50;75.30;;;;;;4104421;28;19919;-83
2023/06/12 05:27:11;;;;;;;;;;;15.60;74.20;;;;;;4105362;28;19925;-82
2023/06/12 05:29:32;;;;;;;;;;;15.60;73.70;;;;;;4104560;28;19921;-82
2023/06/12 05:31:53;;;;;;;;;;;15.60;73.50;;;;;;4107341;28;19914;-83
2023/06/12 05:34:15;;;;;;;;;;;15.70;73.50;;;;;;4104175;28;19918;-83
2023/06/12 05:36:36;;;;;;;;;;;15.80;73.80;;;;;;4105055;28;19930;-83
2023/06/12 05:38:57;;;;;;;;;;;15.80;73.10;;;;;;4099875;28;19919;-83
2023/06/12 05:41:18;;;;;;;;;;;16.00;73.30;;;;;;4098003;28;19923;-84
2023/06/12 05:43:40;;;;;;;;;;;16.00;72.80;;;;;;4100380;28;20170;-84
2023/06/12 05:46:00;;;;;;;;;;;16.10;72.40;;;;;;4102183;28;19919;-82
2023/06/12 05:48:21;;;;;;;;;;;16.10;72.30;;;;;;4101929;28;19969;-84
2023/06/12 05:50:42;;;;;;;;;;;16.20;72.30;;;;;;4098017;28;19931;-83
2023/06/12 05:53:04;;;;;;;;;;;16.30;71.80;;;;;;4101603;28;20419;-83
2023/06/12 05:55:25;;;;;;;;;;;16.20;71.60;;;;;;4104213;28;19918;-83
2023/06/12 05:57:46;;;;;;;;;;;16.20;71.20;;;;;;4103921;28;20007;-83
2023/06/12 06:00:07;;;;;;;;;;;16.30;71.20;;;;;;4100086;28;19922;-83
2023/06/12 06:02:28;;;;;;;;;;;16.30;70.50;;;;;;4102820;28;19922;-83
2023/06/12 06:04:52;;;;;;;;;;;16.30;69.90;;;;;;4107932;28;19949;-83
2023/06/12 06:07:13;;;;;;;;;;;16.40;70.00;;;;;;4102667;28;19993;-84
2023/06/12 06:09:34;;;;;;;;;;;16.50;70.10;;;;;;4099594;28;19941;-83
2023/06/12 06:11:55;;;;;;;;;;;16.50;69.90;;;;;;4098610;28;20407;-83
2023/06/12 06:14:17;;;;;;;;;;;16.50;69.80;;;;;;4100589;28;19921;-82
2023/06/12 06:16:38;;;;;;;;;;;16.60;70.10;;;;;;4114931;28;19918;-82
2023/06/12 06:18:58;;;;;;;;;;;16.70;69.90;;;;;;4101145;28;19919;-83
2023/06/12 06:21:20;;;;;;;;;;;16.80;69.80;;;;;;4101584;28;20006;-83
2023/06/12 06:23:41;;;;;;;;;;;16.80;69.00;;;;;;4097871;28;19923;-83
2023/06/12 06:26:02;;;;;;;;;;;16.90;68.00;;;;;;4102273;28;19948;-82
2023/06/12 06:28:23;;;;;;;;;;;16.80;67.80;;;;;;4112421;28;19914;-83
2023/06/12 06:30:44;;;;;;;;;;;16.80;67.20;;;;;;4108608;28;19918;-84
2023/06/12 06:33:05;;;;;;;;;;;16.90;67.50;;;;;;4101061;28;19936;-84
2023/06/12 06:35:25;;;;;;;;;;;17.00;67.70;;;;;;4100422;28;19922;-83
2023/06/12 06:37:46;;;;;;;;;;;17.00;67.10;;;;;;4101459;28;20017;-84
2023/06/12 06:40:09;;;;;;;;;;;17.10;66.60;;;;;;4106612;28;20880;-83
2023/06/12 06:42:29;;;;;;;;;;;17.10;66.60;;;;;;4101045;28;19914;-83
2023/06/12 06:44:51;;;;;;;;;;;17.20;66.50;;;;;;4099495;28;19922;-84
2023/06/12 06:47:12;;;;;;;;;;;17.10;66.30;;;;;;4097634;28;20513;-83
2023/06/12 06:49:33;;;;;;;;;;;17.10;65.70;;;;;;4103733;28;19935;-83
2023/06/12 06:51:54;;;;;;;;;;;17.10;66.10;;;;;;4099439;28;19914;-84
2023/06/12 06:54:14;;;;;;;;;;;17.10;65.70;;;;;;4098831;28;19925;-84
2023/06/12 06:56:35;;;;;;;;;;;17.20;66.40;;;;;;4101170;28;20468;-82
2023/06/12 06:58:56;;;;;;;;;;;17.10;67.10;;;;;;4102492;28;20001;-83
2023/06/12 07:01:17;;;;;;;;;;;17.10;66.60;;;;;;4099663;28;19919;-83
2023/06/12 07:03:38;;;;;;;;;;;17.10;66.60;;;;;;4102204;28;19914;-83
2023/06/12 07:06:00;;;;;;;;;;;17.20;66.40;;;;;;4114082;28;19914;-83
2023/06/12 07:08:21;;;;;;;;;;;17.20;66.40;;;;;;4094861;28;19918;-84
2023/06/12 07:10:41;;;;;;;;;;;17.30;67.10;;;;;;4102759;28;20436;-84
2023/06/12 07:13:02;;;;;;;;;;;17.30;67.40;;;;;;4100796;28;19924;-83
2023/06/12 07:15:25;;;;;;;;;;;17.40;67.50;;;;;;4102123;28;19911;-85
2023/06/12 07:17:45;;;;;;;;;;;17.50;67.90;;;;;;4101414;28;20324;-82
2023/06/12 07:20:07;;;;;;;;;;;17.50;67.80;;;;;;4101691;28;19959;-84
2023/06/12 07:22:28;;;;;;;;;;;17.60;66.90;;;;;;4098291;28;19914;-83
2023/06/12 07:24:49;;;;;;;;;;;17.60;66.00;;;;;;4099345;28;19978;-85
2023/06/12 07:27:10;;;;;;;;;;;17.70;65.30;;;;;;4100212;28;19942;-84
2023/06/12 07:29:32;;;;;;;;;;;17.70;63.70;;;;;;4100996;28;19917;-84
2023/06/12 07:31:53;;;;;;;;;;;17.80;64.50;;;;;;4098243;28;19922;-83
2023/06/12 07:34:13;;;;;;;;;;;17.80;64.30;;;;;;4101405;28;20537;-82
2023/06/12 07:36:36;;;;;;;;;;;17.90;64.30;;;;;;4102655;28;19919;-85
2023/06/12 07:38:57;;;;;;;;;;;17.90;64.40;;;;;;4102656;28;19919;-83
2023/06/12 07:41:18;;;;;;;;;;;18.00;63.20;;;;;;4102313;28;19922;-84
2023/06/12 07:43:38;;;;;;;;;;;18.00;62.30;;;;;;4107044;28;20130;-84
2023/06/12 07:46:01;;;;;;;;;;;18.10;63.00;;;;;;4102278;28;20239;-82
2023/06/12 07:48:22;;;;;;;;;;;18.10;63.60;;;;;;4100001;28;19918;-84
2023/06/12 07:50:43;;;;;;;;;;;18.10;63.00;;;;;;4104804;28;19961;-84
2023/06/12 07:53:05;;;;;;;;;;;18.20;63.70;;;;;;4096673;28;19918;-84
2023/06/12 07:55:30;;;;;;;;;;;18.20;64.20;;;;;;4101659;28;19915;-82
2023/06/12 07:57:51;;;;;;;;;;;18.20;63.60;;;;;;4111912;28;19921;-83
2023/06/12 08:00:13;;;;;;;;;;;18.30;63.70;;;;;;4100648;28;19942;-83
2023/06/12 08:02:34;;;;;;;;;;;18.30;63.40;;;;;;4099716;28;19914;-86
2023/06/12 08:04:55;;;;;;;;;;;18.40;63.70;;;;;;4102574;28;20012;-84
2023/06/12 08:07:17;;;;;;;;;;;18.30;63.00;;;;;;4101814;28;19915;-84
2023/06/12 08:09:39;;;;;;;;;;;18.40;63.10;;;;;;4102842;28;20003;-84
2023/06/12 08:12:00;;;;;;;;;;;18.50;62.90;;;;;;4105206;28;20012;-85
2023/06/12 08:14:21;;;;;;;;;;;18.50;62.20;;;;;;4098868;28;19933;-84
2023/06/12 08:16:44;;;;;;;;;;;18.60;62.50;;;;;;4103009;28;19916;-81
2023/06/12 08:19:05;;;;;;;;;;;18.50;63.50;;;;;;4100969;28;19962;-83
2023/06/12 08:21:26;;;;;;;;;;;18.60;62.90;;;;;;4097999;28;19919;-81
2023/06/12 08:23:47;;;;;;;;;;;18.70;62.70;;;;;;4098093;28;21226;-79
2023/06/12 08:26:08;;;;;;;;;;;18.70;61.10;;;;;;4098547;28;19925;-83
2023/06/12 08:28:30;;;;;;;;;;;18.70;62.00;;;;;;4103054;28;19915;-83
2023/06/12 08:30:51;;;;;;;;;;;18.70;61.50;;;;;;4101626;28;20320;-81
2023/06/12 08:33:15;;;;;;;;;;;18.80;61.20;;;;;;4097286;28;19915;-82
2023/06/12 08:35:36;;;;;;;;;;;18.90;61.30;;;;;;4098839;28;19918;-83
2023/06/12 08:37:57;;;;;;;;;;;18.90;60.80;;;;;;4099880;28;19918;-85
2023/06/12 08:40:19;;;;;;;;;;;18.90;61.50;;;;;;4102179;28;19910;-84
2023/06/12 08:42:42;;;;;;;;;;;18.90;60.40;;;;;;4097214;28;19926;-84
2023/06/12 08:45:03;;;;;;;;;;;19.00;60.90;;;;;;4094639;28;19958;-82
2023/06/12 08:47:24;;;;;;;;;;;19.00;60.60;;;;;;4102677;28;19918;-82
2023/06/12 08:49:45;;;;;;;;;;;19.10;60.90;;;;;;4099358;28;19914;-83
2023/06/12 08:52:12;;;;;;;;;;;19.10;60.70;;;;;;4099972;28;19914;-82
2023/06/12 08:54:34;;;;;;;;;;;19.20;60.20;;;;;;4095472;28;19921;-83
2023/06/12 08:56:56;;;;;;;;;;;19.20;60.10;;;;;;4095558;28;19915;-84
2023/06/12 08:59:17;;;;;;;;;;;19.20;60.50;;;;;;4100240;28;19957;-84
2023/06/12 09:01:39;;;;;;;;;;;19.30;60.10;;;;;;4101918;28;19958;-82
2023/06/12 09:04:03;;;;;;;;;;;19.30;59.90;;;;;;4096070;28;20349;-81
2023/06/12 09:06:24;;;;;;;;;;;19.40;59.00;;;;;;4096778;28;19977;-82
2023/06/12 09:08:45;;;;;;;;;;;19.40;58.90;;;;;;4099581;28;19911;-83
2023/06/12 09:11:06;;;;;;;;;;;19.30;57.70;;;;;;4100218;28;19922;-83
2023/06/12 09:13:38;;;;;;;;;;;19.40;58.30;;;;;;4095540;28;20376;-82
2023/06/12 09:15:59;;;;;;;;;;;19.40;58.40;;;;;;4094379;28;19969;-83
2023/06/12 09:18:20;;;;;;;;;;;19.40;57.60;;;;;;4093727;28;19926;-82
2023/06/12 09:20:40;;;;;;;;;;;19.40;57.20;;;;;;4110876;28;19914;-82
2023/06/12 09:23:02;;;;;;;;;;;19.40;57.40;;;;;;4098735;28;19914;-81
2023/06/12 09:25:26;;;;;;;;;;;19.50;57.50;;;;;;4100181;28;19954;-83
2023/06/12 09:27:47;;;;;;;;;;;19.60;56.90;;;;;;4095660;28;19974;-82
2023/06/12 09:30:09;;;;;;;;;;;19.50;56.60;;;;;;4099634;28;19918;-83
2023/06/12 09:32:30;;;;;;;;;;;19.60;57.40;;;;;;4101209;28;19915;-82
2023/06/12 09:34:50;;;;;;;;;;;19.60;56.30;;;;;;4100643;28;20036;-82
2023/06/12 09:37:12;;;;;;;;;;;19.70;56.50;;;;;;4100647;28;19915;-84
2023/06/12 09:39:33;;;;;;;;;;;19.80;56.90;;;;;;4103087;28;20018;-83
2023/06/12 09:41:54;;;;;;;;;;;19.90;57.20;;;;;;4097347;28;19945;-83
2023/06/12 09:44:25;;;;;;;;;;;19.90;56.20;;;;;;4100283;28;19925;-82
2023/06/12 09:46:46;;;;;;;;;;;19.90;54.40;;;;;;4098434;28;20404;-82
2023/06/12 09:49:09;;;;;;;;;;;20.00;54.50;;;;;;4095804;28;19925;-80
2023/06/12 09:51:32;;;;;;;;;;;20.10;54.80;;;;;;4098421;28;19918;-82
2023/06/12 09:53:55;;;;;;;;;;;20.00;53.30;;;;;;4114437;28;19914;-83
2023/06/12 09:56:17;;;;;;;;;;;20.00;53.20;;;;;;4102336;28;19946;-83
2023/06/12 09:58:38;;;;;;;;;;;20.20;53.70;;;;;;4098981;28;19922;-83
2023/06/12 10:01:01;;;;;;;;;;;20.30;54.20;;;;;;4097989;28;19921;-83
2023/06/12 10:03:24;;;;;;;;;;;20.20;53.50;;;;;;4100340;28;19995;-82
2023/06/12 10:05:48;;;;;;;;;;;20.10;51.60;;;;;;4103029;28;19929;-84
2023/06/12 10:08:09;;;;;;;;;;;20.20;52.80;;;;;;4113756;28;20061;-84
2023/06/12 10:10:30;;;;;;;;;;;20.30;53.40;;;;;;4114492;28;19919;-83
2023/06/12 10:12:52;;;;;;;;;;;20.30;52.00;;;;;;4101384;28;19925;-84
2023/06/12 10:15:13;;;;;;;;;;;20.30;52.80;;;;;;4100213;28;20610;-83
2023/06/12 10:17:35;;;;;;;;;;;20.40;52.70;;;;;;4102218;28;19925;-83
2023/06/12 10:19:57;;;;;;;;;;;20.50;51.80;;;;;;4097312;28;19966;-83
2023/06/12 10:22:17;;;;;;;;;;;20.40;51.50;;;;;;4100658;28;19942;-84
2023/06/12 10:24:38;;;;;;;;;;;20.40;51.00;;;;;;4097963;28;19927;-83
2023/06/12 10:27:00;;;;;;;;;;;20.40;51.40;;;;;;4100212;28;19973;-81
2023/06/12 10:29:25;;;;;;;;;;;20.40;51.90;;;;;;4104731;28;19914;-82
2023/06/12 10:31:46;;;;;;;;;;;20.30;50.00;;;;;;4097593;28;19923;-82
2023/06/12 10:34:10;;;;;;;;;;;20.40;50.00;;;;;;4093720;28;19957;-84
2023/06/12 10:36:39;;;;;;;;;;;20.30;50.20;;;;;;4100441;28;19998;-84
2023/06/12 10:39:02;;;;;;;;;;;20.30;50.10;;;;;;4109166;28;20227;-82
2023/06/12 10:41:30;;;;;;;;;;;20.30;51.00;;;;;;4112041;28;20023;-79
2023/06/12 10:43:51;;;;;;;;;;;20.30;50.10;;;;;;4103162;28;19938;-82
2023/06/12 10:46:12;;;;;;;;;;;20.30;50.40;;;;;;4098716;28;20011;-81
2023/06/12 10:48:44;;;;;;;;;;;20.30;50.80;;;;;;4093399;28;19925;-84
2023/06/12 10:51:05;;;;;;;;;;;20.40;51.20;;;;;;4098087;28;19954;-83
2023/06/12 10:53:29;;;;;;;;;;;20.50;50.40;;;;;;4109803;28;19914;-83
2023/06/12 10:56:06;;;;;;;;;;;20.50;49.60;;;;;;4093009;28;19946;-84
2023/06/12 10:58:34;;;;;;;;;;;20.60;50.20;;;;;;4095257;28;19989;-83
2023/06/12 11:00:56;;;;;;;;;;;20.50;50.10;;;;;;4094242;28;19918;-81
2023/06/12 11:03:21;;;;;;;;;;;20.60;50.20;;;;;;4106146;28;19919;-83
2023/06/12 11:05:46;;;;;;;;;;;20.60;49.80;;;;;;4094319;28;20311;-82
2023/06/12 11:08:07;;;;;;;;;;;20.70;50.30;;;;;;4099484;28;19926;-83
2023/06/12 11:10:28;;;;;;;;;;;20.70;51.60;;;;;;4098828;28;21068;-82
2023/06/12 11:12:51;;;;;;;;;;;20.80;50.60;;;;;;4112442;28;20363;-82
2023/06/12 11:15:11;;;;;;;;;;;20.90;50.90;;;;;;4096944;28;19918;-80
2023/06/12 11:17:33;;;;;;;;;;;21.00;50.30;;;;;;4101022;28;19914;-82
2023/06/12 11:20:00;;;;;;;;;;;21.00;50.10;;;;;;4111095;28;19961;-83
2023/06/12 11:22:21;;;;;;;;;;;21.10;50.00;;;;;;4111896;28;19925;-83
2023/06/12 11:24:42;;;;;;;;;;;21.20;49.80;;;;;;4098382;28;19918;-82
2023/06/12 11:27:04;;;;;;;;;;;21.20;48.90;;;;;;4097784;28;19923;-83
2023/06/12 11:29:25;;;;;;;;;;;21.20;48.20;;;;;;4106062;28;20144;-83
2023/06/12 11:31:48;;;;;;;;;;;21.20;48.10;;;;;;4096522;28;20373;-83
2023/06/12 11:34:08;;;;;;;;;;;21.30;46.80;;;;;;4100514;28;19937;-82
2023/06/12 11:36:29;;;;;;;;;;;21.30;46.70;;;;;;4101474;28;19918;-82
2023/06/12 11:38:50;;;;;;;;;;;21.30;47.80;;;;;;4100038;28;19982;-83
2023/06/12 11:41:11;;;;;;;;;;;21.30;47.80;;;;;;4096804;28;20363;-85
2023/06/12 11:43:32;;;;;;;;;;;21.30;47.50;;;;;;4097697;28;20324;-83
2023/06/12 11:45:55;;;;;;;;;;;21.30;47.80;;;;;;4101261;28;19926;-83
2023/06/12 11:48:16;;;;;;;;;;;21.30;46.40;;;;;;4098006;28;19946;-80
2023/06/12 11:50:37;;;;;;;;;;;21.30;47.20;;;;;;4113001;28;19919;-83
2023/06/12 11:52:58;;;;;;;;;;;21.40;47.70;;;;;;4093099;28;19999;-83
2023/06/12 11:55:21;;;;;;;;;;;21.40;47.90;;;;;;4108477;28;20025;-82
2023/06/12 11:57:49;;;;;;;;;;;21.40;48.00;;;;;;4093697;28;19930;-83
2023/06/12 12:00:14;;;;;;;;;;;21.40;47.20;;;;;;4093975;28;19921;-82
2023/06/12 12:02:39;;;;;;;;;;;21.50;47.70;;;;;;4095912;28;19915;-82
2023/06/12 12:05:04;;;;;;;;;;;21.40;46.70;;;;;;4098527;28;20030;-83
2023/06/12 12:07:26;;;;;;;;;;;21.50;47.70;;;;;;4099482;28;19939;-82
2023/06/12 12:09:47;;;;;;;;;;;21.60;48.80;;;;;;4099610;28;19958;-83
2023/06/12 12:12:10;;;;;;;;;;;21.70;48.40;;;;;;4091438;28;19962;-82
2023/06/12 12:14:31;;;;;;;;;;;21.70;48.00;;;;;;4106960;28;19953;-82
2023/06/12 12:16:52;;;;;;;;;;;21.80;47.30;;;;;;4110165;28;19937;-82
2023/06/12 12:19:16;;;;;;;;;;;21.80;46.20;;;;;;4098059;28;20002;-82
2023/06/12 12:21:37;;;;;;;;;;;21.90;45.30;;;;;;4093873;28;19922;-83
2023/06/12 12:23:58;;;;;;;;;;;21.90;45.60;;;;;;4096224;28;19918;-83
2023/06/12 12:26:18;;;;;;;;;;;21.90;45.10;;;;;;4097605;28;19929;-83
2023/06/12 12:28:42;;;;;;;;;;;22.00;44.20;;;;;;4098963;28;19915;-81
2023/06/12 12:31:03;;;;;;;;;;;22.00;44.70;;;;;;4095799;28;20003;-83
2023/06/12 12:33:24;;;;;;;;;;;22.10;44.80;;;;;;4096527;28;19993;-82
2023/06/12 12:35:45;;;;;;;;;;;22.20;44.80;;;;;;4099164;28;19956;-83
2023/06/12 12:38:08;;;;;;;;;;;22.20;44.10;;;;;;4097986;28;19922;-84
2023/06/12 12:40:28;;;;;;;;;;;22.20;43.10;;;;;;4098079;28;19922;-84
2023/06/12 12:42:50;;;;;;;;;;;22.20;43.50;;;;;;4095148;28;20365;-83
2023/06/12 12:45:11;;;;;;;;;;;22.20;42.70;;;;;;4100134;28;19981;-82
2023/06/12 12:47:33;;;;;;;;;;;22.20;42.50;;;;;;4096920;28;19915;-82
2023/06/12 12:49:54;;;;;;;;;;;22.30;43.50;;;;;;4102113;28;20306;-83
2023/06/12 12:52:15;;;;;;;;;;;22.30;44.40;;;;;;4100980;28;19923;-83
2023/06/12 12:54:37;;;;;;;;;;;22.30;44.60;;;;;;4094970;28;19914;-83
2023/06/12 12:56:58;;;;;;;;;;;22.30;45.50;;;;;;4105385;28;19918;-83
2023/06/12 12:59:19;;;;;;;;;;;22.30;45.30;;;;;;4091697;28;19941;-82
2023/06/12 13:01:40;;;;;;;;;;;22.40;45.80;;;;;;4092337;28;19918;-83
2023/06/12 13:04:00;;;;;;;;;;;22.50;45.00;;;;;;4098738;28;19977;-83
2023/06/12 13:06:21;;;;;;;;;;;22.50;45.20;;;;;;4097976;28;19918;-83
2023/06/12 13:08:42;;;;;;;;;;;22.50;45.10;;;;;;4098364;28;19914;-83
2023/06/12 13:11:03;;;;;;;;;;;22.50;43.70;;;;;;4097909;28;19954;-82
2023/06/12 13:13:24;;;;;;;;;;;22.50;44.40;;;;;;4102186;28;19918;-83
2023/06/12 13:15:45;;;;;;;;;;;22.60;44.10;;;;;;4113967;28;19910;-83
2023/06/12 13:18:06;;;;;;;;;;;22.60;43.90;;;;;;4101588;28;19919;-82
2023/06/12 13:20:28;;;;;;;;;;;22.50;42.30;;;;;;4099287;28;20530;-83
2023/06/12 13:22:49;;;;;;;;;;;22.70;43.90;;;;;;4100433;28;19919;-83
2023/06/12 13:25:10;;;;;;;;;;;22.60;42.90;;;;;;4100414;28;19914;-82
2023/06/12 13:27:31;;;;;;;;;;;22.70;43.40;;;;;;4101603;28;19914;-83
2023/06/12 13:29:52;;;;;;;;;;;22.70;44.60;;;;;;4103170;28;19926;-84
2023/06/12 13:32:12;;;;;;;;;;;22.80;44.00;;;;;;4113782;28;19914;-83
2023/06/12 13:34:33;;;;;;;;;;;22.90;44.70;;;;;;4100473;28;19923;-82
2023/06/12 13:36:54;;;;;;;;;;;22.90;43.20;;;;;;4102453;28;19922;-82
2023/06/12 13:39:16;;;;;;;;;;;22.90;41.60;;;;;;4092178;28;19938;-82
2023/06/12 13:41:36;;;;;;;;;;;23.00;43.10;;;;;;4102518;28;19918;-85
2023/06/12 13:43:57;;;;;;;;;;;23.10;42.60;;;;;;4099665;28;20636;-83